Time;durP1;ratioP1;P1;durP2;ratioP2;P2;SDS_P1;SDS_P2;PMS_P1;PMS_P2;Temp;Humidity;BMP_temperature;BMP_pressure;BME280_temperature;BME280_humidity;BME280_pressure;Samples;Min_cycle;Max_cycle;Signal;HPM_P1;HPM_P2
2024/01/27 00:01:11;;;;;;;8.43;1.92;;;;;;;;;;6144947;28;20121;-83
2024/01/27 00:04:14;;;;;;;;;;;;;;;;;;6124056;28;20524;-83
2024/01/27 00:07:17;;;;;;;4.97;1.38;;;;;;;;;;6126907;28;20320;-83
2024/01/27 00:10:18;;;;;;;6.13;1.55;;;;;;;;;;6143937;28;20051;-83
2024/01/27 00:13:20;;;;;;;7.95;1.83;;;;;;;;;;6129107;28;20074;-83
2024/01/27 00:16:22;;;;;;;8.30;1.60;;;;;;;;;;6155381;28;20087;-83
2024/01/27 00:19:23;;;;;;;5.60;1.60;;;;;;;;;;6150784;28;20050;-83
2024/01/27 00:22:25;;;;;;;7.80;2.13;;;;;;;;;;6149704;28;20082;-83
2024/01/27 00:25:27;;;;;;;7.22;1.88;;;;;;;;;;6150759;28;20046;-83
2024/01/27 00:28:29;;;;;;;11.80;2.25;;;;;;;;;;6162108;28;20086;-83
2024/01/27 00:31:30;;;;;;;7.57;1.95;;;;;;;;;;6150833;28;20070;-83
2024/01/27 00:34:32;;;;;;;5.68;1.67;;;;;;;;;;6159176;28;20039;-84
2024/01/27 00:37:34;;;;;;;10.13;2.40;;;;;;;;;;6134410;28;20245;-84
2024/01/27 00:40:35;;;;;;;17.10;2.67;;;;;;;;;;6147027;28;20458;-83
2024/01/27 00:43:37;;;;;;;8.45;2.17;;;;;;;;;;6145546;28;20083;-84
2024/01/27 00:46:39;;;;;;;13.48;2.70;;;;;;;;;;6137971;28;20058;-84
2024/01/27 00:49:41;;;;;;;8.45;2.97;;;;;;;;;;6140248;28;20421;-84
2024/01/27 00:52:43;;;;;;;9.38;3.05;;;;;;;;;;6150613;28;20043;-83
2024/01/27 00:55:44;;;;;;;11.82;2.70;;;;;;;;;;6137759;28;20043;-84
2024/01/27 00:58:46;;;;;;;7.35;2.35;;;;;;;;;;6143332;28;20498;-83
2024/01/27 01:01:48;;;;;;;9.95;2.60;;;;;;;;;;6123452;28;20059;-84
2024/01/27 01:04:49;;;;;;;5.68;2.15;;;;;;;;;;6156788;28;20422;-83
2024/01/27 01:07:51;;;;;;;8.50;2.35;;;;;;;;;;6146347;28;20356;-83
2024/01/27 01:10:52;;;;;;;8.48;2.38;;;;;;;;;;6140085;28;20494;-83
2024/01/27 01:13:54;;;;;;;12.35;2.28;;;;;;;;;;6146925;28;20078;-84
2024/01/27 01:16:56;;;;;;;12.10;2.40;;;;;;;;;;6127219;28;20600;-84
2024/01/27 01:19:57;;;;;;;10.35;2.35;;;;;;;;;;6125104;28;20086;-84
2024/01/27 01:22:59;;;;;;;9.18;2.67;;;;;;;;;;6163541;28;20414;-84
2024/01/27 01:26:01;;;;;;;9.65;2.10;;;;;;;;;;6145991;28;20430;-84
2024/01/27 01:29:02;;;;;;;12.25;2.15;;;;;;;;;;6162857;28;20047;-83
2024/01/27 01:32:04;;;;;;;9.15;2.30;;;;;;;;;;6148815;28;20054;-84
2024/01/27 01:35:06;;;;;;;11.02;2.45;;;;;;;;;;6127644;28;20505;-84
2024/01/27 01:38:08;;;;;;;8.63;2.20;;;;;;;;;;6150400;28;20043;-84
2024/01/27 01:41:10;;;;;;;8.95;2.13;;;;;;;;;;6137152;28;20051;-84
2024/01/27 01:44:11;;;;;;;10.88;2.10;;;;;;;;;;6142588;28;20395;-84
2024/01/27 01:47:13;;;;;;;10.60;2.28;;;;;;;;;;6144294;28;20438;-83
2024/01/27 01:50:15;;;;;;;6.72;1.83;;;;;;;;;;6135052;28;20106;-84
2024/01/27 01:53:18;;;;;;;12.10;2.10;;;;;;;;;;6161159;28;20047;-83
2024/01/27 01:56:19;;;;;;;8.75;2.45;;;;;;;;;;6147925;28;20055;-83
2024/01/27 01:59:21;;;;;;;10.07;2.38;;;;;;;;;;6146962;28;20141;-84
2024/01/27 02:02:23;;;;;;;12.15;2.25;;;;;;;;;;6141019;28;20459;-84
2024/01/27 02:05:24;;;;;;;8.45;2.03;;;;;;;;;;6122357;28;20055;-83
2024/01/27 02:08:26;;;;;;;9.25;1.83;;;;;;;;;;6127092;28;20403;-83
2024/01/27 02:11:28;;;;;;;5.90;2.25;;;;;;;;;;6160886;28;20047;-83
2024/01/27 02:14:30;;;;;;;10.40;2.35;;;;;;;;;;6123553;28;20050;-82
2024/01/27 02:17:32;;;;;;;8.88;1.98;;;;;;;;;;6140990;28;20186;-83
2024/01/27 02:20:33;;;;;;;5.65;1.73;;;;;;;;;;6128363;28;20047;-84
2024/01/27 02:23:35;;;;;;;9.38;1.92;;;;;;;;;;6160187;28;20050;-83
2024/01/27 02:26:37;;;;;;;10.80;2.28;;;;;;;;;;6145498;28;20058;-83
2024/01/27 02:29:39;;;;;;;3.78;1.73;;;;;;;;;;6144826;28;20165;-83
2024/01/27 02:32:40;;;;;;;10.55;2.28;;;;;;;;;;6146644;28;20122;-83
2024/01/27 02:35:43;;;;;;;7.40;1.92;;;;;;;;;;6144022;28;20055;-84
2024/01/27 02:38:45;;;;;;;16.27;2.80;;;;;;;;;;6150778;28;20395;-84
2024/01/27 02:41:47;;;;;;;12.75;2.42;;;;;;;;;;6138465;28;20102;-83
2024/01/27 02:44:48;;;;;;;10.90;2.13;;;;;;;;;;6140272;28;20174;-83
2024/01/27 02:47:50;;;;;;;10.07;2.67;;;;;;;;;;6142391;28;20043;-83
2024/01/27 02:50:52;;;;;;;8.77;1.90;;;;;;;;;;6139858;28;20578;-84
2024/01/27 02:53:54;;;;;;;6.65;1.98;;;;;;;;;;6142163;28;20051;-83
2024/01/27 02:56:55;;;;;;;12.95;2.25;;;;;;;;;;6138458;28;20052;-83
2024/01/27 02:59:57;;;;;;;11.55;2.72;;;;;;;;;;6142563;28;20050;-83
2024/01/27 03:02:59;;;;;;;9.95;2.55;;;;;;;;;;6138828;28;20062;-83
2024/01/27 03:06:01;;;;;;;8.80;2.47;;;;;;;;;;6141476;28;20133;-83
2024/01/27 03:09:03;;;;;;;11.32;2.60;;;;;;;;;;6157496;28;20047;-82
2024/01/27 03:12:05;;;;;;;8.63;2.55;;;;;;;;;;6139522;28;20054;-83
2024/01/27 03:15:07;;;;;;;7.65;2.85;;;;;;;;;;6133784;28;20055;-83
2024/01/27 03:18:09;;;;;;;12.30;2.47;;;;;;;;;;6138895;28;20066;-83
2024/01/27 03:21:12;;;;;;;16.92;3.05;;;;;;;;;;6143481;28;20455;-83
2024/01/27 03:24:13;;;;;;;12.65;2.47;;;;;;;;;;6132908;28;20495;-83
2024/01/27 03:27:15;;;;;;;13.10;2.30;;;;;;;;;;6155040;28;20138;-83
2024/01/27 03:30:17;;;;;;;4.80;2.10;;;;;;;;;;6137139;28;20438;-83
2024/01/27 03:33:19;;;;;;;9.20;2.53;;;;;;;;;;6138225;28;20050;-83
2024/01/27 03:36:21;;;;;;;9.25;2.50;;;;;;;;;;6131661;28;20050;-83
2024/01/27 03:39:23;;;;;;;9.52;2.28;;;;;;;;;;6115627;28;20113;-84
2024/01/27 03:42:25;;;;;;;14.05;2.78;;;;;;;;;;6134049;28;20052;-83
2024/01/27 03:45:28;;;;;;;;;;;;;;;;;;6139019;28;20151;-83
2024/01/27 03:48:30;;;;;;;4.05;1.70;;;;;;;;;;6129856;28;19976;-83
2024/01/27 03:51:32;;;;;;;9.55;2.03;;;;;;;;;;6124296;28;20493;-83
2024/01/27 03:54:33;;;;;;;8.30;1.88;;;;;;;;;;6132746;28;20122;-84
2024/01/27 03:57:35;;;;;;;5.75;2.00;;;;;;;;;;6117674;28;20047;-82
2024/01/27 04:00:37;;;;;;;8.18;2.03;;;;;;;;;;6137179;28;20047;-83
2024/01/27 04:03:39;;;;;;;4.72;1.88;;;;;;;;;;6133084;28;20050;-82
2024/01/27 04:06:41;;;;;;;6.38;1.70;;;;;;;;;;6135831;28;20105;-82
2024/01/27 04:09:43;;;;;;;10.15;1.77;;;;;;;;;;6124051;28;20399;-82
2024/01/27 04:12:44;;;;;;;7.20;1.67;;;;;;;;;;6137244;28;20050;-83
2024/01/27 04:15:46;;;;;;;6.15;2.25;;;;;;;;;;6140001;28;20050;-82
2024/01/27 04:18:48;;;;;;;7.10;2.05;;;;;;;;;;6135501;28;20134;-83
2024/01/27 04:21:50;;;;;;;9.90;1.90;;;;;;;;;;6130255;28;20050;-83
2024/01/27 04:24:51;;;;;;;7.82;1.83;;;;;;;;;;6151076;28;20051;-83
2024/01/27 04:27:54;;;;;;;9.45;1.48;;;;;;;;;;6130841;28;20110;-83
2024/01/27 04:30:55;;;;;;;9.23;2.20;;;;;;;;;;6149160;28;20061;-84
2024/01/27 04:33:58;;;;;;;13.25;1.88;;;;;;;;;;6143512;28;20158;-83
2024/01/27 04:37:01;;;;;;;5.37;1.53;;;;;;;;;;6130067;28;20082;-83
2024/01/27 04:40:05;;;;;;;6.03;1.80;;;;;;;;;;6136570;28;20459;-82
2024/01/27 04:43:07;;;;;;;6.70;2.13;;;;;;;;;;6116976;28;20050;-82
2024/01/27 04:46:09;;;;;;;6.35;1.77;;;;;;;;;;6152208;28;20126;-83
2024/01/27 04:49:11;;;;;;;5.93;1.75;;;;;;;;;;6151067;28;20073;-83
2024/01/27 04:52:12;;;;;;;6.97;1.60;;;;;;;;;;6142862;28;20047;-84
2024/01/27 04:55:14;;;;;;;6.03;2.22;;;;;;;;;;6129203;28;20058;-84
2024/01/27 04:58:16;;;;;;;17.65;4.72;;;;;;;;;;6138967;28;20055;-84
2024/01/27 05:01:17;;;;;;;13.88;3.72;;;;;;;;;;6158610;28;20047;-83
2024/01/27 05:04:19;;;;;;;17.88;8.52;;;;;;;;;;6145454;28;20070;-84
2024/01/27 05:07:24;;;;;;;15.65;8.65;;;;;;;;;;6144506;28;20596;-84
2024/01/27 05:10:29;;;;;;;15.68;10.73;;;;;;;;;;6114070;28;20066;-84
2024/01/27 05:13:30;;;;;;;7.85;2.67;;;;;;;;;;6139525;28;20043;-84
2024/01/27 05:16:33;;;;;;;9.77;4.30;;;;;;;;;;6155675;28;20168;-84
2024/01/27 05:19:35;;;;;;;11.98;4.90;;;;;;;;;;6141161;28;20317;-84
2024/01/27 05:22:37;;;;;;;20.15;6.78;;;;;;;;;;6137367;28;20049;-84
2024/01/27 05:25:39;;;;;;;15.63;5.43;;;;;;;;;;6140427;28;20051;-84
2024/01/27 05:28:41;;;;;;;11.85;4.00;;;;;;;;;;6141019;28;20043;-84
2024/01/27 05:31:43;;;;;;;13.02;4.07;;;;;;;;;;6141874;28;20050;-84
2024/01/27 05:34:45;;;;;;;8.47;4.03;;;;;;;;;;6129151;28;20435;-84
2024/01/27 05:37:47;;;;;;;9.85;4.43;;;;;;;;;;6155921;28;20088;-83
2024/01/27 05:40:50;;;;;;;15.45;5.03;;;;;;;;;;6156949;28;20506;-84
2024/01/27 05:43:52;;;;;;;6.85;2.65;;;;;;;;;;6131906;28;20103;-83
2024/01/27 05:46:54;;;;;;;19.23;8.45;;;;;;;;;;6138233;28;20036;-84
2024/01/27 05:49:55;;;;;;;20.15;6.85;;;;;;;;;;6142087;28;20308;-84
2024/01/27 05:52:57;;;;;;;14.07;6.03;;;;;;;;;;6140690;28;20094;-84
2024/01/27 05:55:59;;;;;;;11.73;3.25;;;;;;;;;;6138112;28;20485;-84
2024/01/27 05:59:00;;;;;;;12.80;2.60;;;;;;;;;;6161800;28;20046;-84
2024/01/27 06:02:05;;;;;;;11.70;3.28;;;;;;;;;;6138424;28;20109;-83
2024/01/27 06:05:08;;;;;;;8.57;3.97;;;;;;;;;;6155360;28;20078;-84
2024/01/27 06:08:10;;;;;;;13.15;3.95;;;;;;;;;;6141021;28;20055;-84
2024/01/27 06:11:12;;;;;;;9.25;4.22;;;;;;;;;;6149422;28;20130;-83
2024/01/27 06:14:14;;;;;;;11.57;3.10;;;;;;;;;;6136218;28;20058;-83
2024/01/27 06:17:16;;;;;;;10.15;3.58;;;;;;;;;;6130761;28;20125;-83
2024/01/27 06:20:18;;;;;;;7.65;2.97;;;;;;;;;;6133922;28;20139;-83
2024/01/27 06:23:20;;;;;;;7.28;2.60;;;;;;;;;;6134294;28;20082;-83
2024/01/27 06:26:22;;;;;;;11.27;3.30;;;;;;;;;;6149087;28;20187;-83
2024/01/27 06:29:25;;;;;;;11.52;2.85;;;;;;;;;;6131324;28;20042;-83
2024/01/27 06:32:27;;;;;;;13.05;4.75;;;;;;;;;;6136542;28;20154;-82
2024/01/27 06:35:28;;;;;;;11.63;4.45;;;;;;;;;;6124285;28;20055;-82
2024/01/27 06:38:31;;;;;;;11.98;7.13;;;;;;;;;;6117146;28;20537;-82
2024/01/27 06:41:33;;;;;;;19.95;8.70;;;;;;;;;;6123211;28;20039;-82
2024/01/27 06:44:34;;;;;;;12.10;6.25;;;;;;;;;;6141245;28;20058;-82
2024/01/27 06:47:36;;;;;;;12.93;5.18;;;;;;;;;;6151493;28;20090;-84
2024/01/27 06:50:41;;;;;;;10.00;3.72;;;;;;;;;;6139245;28;20059;-84
2024/01/27 06:53:43;;;;;;;6.80;3.00;;;;;;;;;;6155458;28;20110;-84
2024/01/27 06:56:45;;;;;;;10.65;3.13;;;;;;;;;;6136934;28;20047;-83
2024/01/27 06:59:53;;;;;;;10.75;4.28;;;;;;;;;;6137703;28;20055;-84
2024/01/27 07:02:58;;;;;;;16.70;8.70;;;;;;;;;;6155285;28;20047;-84
2024/01/27 07:06:03;;;;;;;32.10;12.43;;;;;;;;;;6135691;28;20585;-84
2024/01/27 07:09:12;;;;;;;14.75;6.45;;;;;;;;;;6151915;28;20537;-84
2024/01/27 07:12:14;;;;;;;12.75;5.53;;;;;;;;;;6149683;28;20520;-86
2024/01/27 07:15:16;;;;;;;11.57;4.70;;;;;;;;;;6132289;28;20043;-85
2024/01/27 07:18:19;;;;;;;32.65;11.45;;;;;;;;;;6115837;28;20051;-85
2024/01/27 07:21:22;;;;;;;18.00;7.18;;;;;;;;;;6134949;28;20071;-85
2024/01/27 07:24:23;;;;;;;20.92;6.03;;;;;;;;;;6127526;28;20055;-85
2024/01/27 07:27:25;;;;;;;18.33;5.93;;;;;;;;;;6136940;28;20559;-86
2024/01/27 07:30:27;;;;;;;21.23;10.25;;;;;;;;;;6138204;28;20047;-84
2024/01/27 07:33:29;;;;;;;18.00;9.13;;;;;;;;;;6147179;28;20536;-86
2024/01/27 07:36:32;;;;;;;11.03;4.37;;;;;;;;;;6152444;28;20138;-84
2024/01/27 07:39:34;;;;;;;18.55;6.18;;;;;;;;;;6136880;28;20447;-86
2024/01/27 07:42:36;;;;;;;15.18;5.40;;;;;;;;;;6132087;28;20051;-85
2024/01/27 07:45:40;;;;;;;21.45;5.75;;;;;;;;;;6118213;28;20047;-85
2024/01/27 07:48:42;;;;;;;20.58;8.20;;;;;;;;;;6134824;28;20051;-85
2024/01/27 07:51:46;;;;;;;14.52;6.72;;;;;;;;;;6152762;28;20043;-84
2024/01/27 07:54:49;;;;;;;14.02;6.00;;;;;;;;;;6124701;28;20051;-83
2024/01/27 07:57:51;;;;;;;18.07;4.50;;;;;;;;;;6111034;28;20070;-85
2024/01/27 08:00:53;;;;;;;14.15;5.50;;;;;;;;;;6134763;28;20402;-84
2024/01/27 08:03:55;;;;;;;10.75;4.90;;;;;;;;;;6112084;28;20558;-84
2024/01/27 08:06:57;;;;;;;14.20;5.85;;;;;;;;;;6141932;28;20061;-86
2024/01/27 08:09:59;;;;;;;24.48;8.48;;;;;;;;;;6142437;28;20046;-87
2024/01/27 08:13:01;;;;;;;19.83;8.38;;;;;;;;;;6156846;28;20043;-86
2024/01/27 08:16:04;;;;;;;22.17;8.65;;;;;;;;;;6159483;28;20396;-87
2024/01/27 08:19:06;;;;;;;22.63;8.13;;;;;;;;;;6135906;28;20055;-87
2024/01/27 08:22:09;;;;;;;22.38;7.53;;;;;;;;;;6136307;28;20055;-85
2024/01/27 08:25:11;;;;;;;20.60;9.73;;;;;;;;;;6122906;28;20060;-86
2024/01/27 08:28:13;;;;;;;30.92;14.00;;;;;;;;;;6142929;28;20130;-86
2024/01/27 08:31:15;;;;;;;18.73;7.38;;;;;;;;;;6132282;28;20136;-86
2024/01/27 08:34:17;;;;;;;17.08;6.80;;;;;;;;;;6137220;28;20050;-87
2024/01/27 08:37:20;;;;;;;24.95;9.90;;;;;;;;;;6130877;28;20055;-85
2024/01/27 08:40:22;;;;;;;19.92;11.00;;;;;;;;;;6130370;28;20537;-87
2024/01/27 08:43:24;;;;;;;16.83;8.70;;;;;;;;;;6119864;28;20043;-85
2024/01/27 08:46:26;;;;;;;17.27;8.05;;;;;;;;;;6141914;28;20418;-86
2024/01/27 08:49:28;;;;;;;19.67;8.60;;;;;;;;;;6125350;28;20043;-86
2024/01/27 08:52:30;;;;;;;23.08;9.63;;;;;;;;;;6127329;28;20530;-85
2024/01/27 08:55:35;;;;;;;17.40;7.85;;;;;;;;;;6127375;28;20134;-86
2024/01/27 08:58:38;;;;;;;14.25;7.75;;;;;;;;;;6131819;28;20062;-86
2024/01/27 09:01:39;;;;;;;14.70;6.35;;;;;;;;;;6122010;28;20058;-86
2024/01/27 09:04:41;;;;;;;8.30;3.40;;;;;;;;;;6128165;28;20086;-88
2024/01/27 09:07:43;;;;;;;14.57;5.45;;;;;;;;;;6128621;28;20046;-87
2024/01/27 09:10:45;;;;;;;18.40;5.95;;;;;;;;;;6143689;28;20062;-86
2024/01/27 09:13:48;;;;;;;19.13;6.40;;;;;;;;;;6119592;28;20058;-86
2024/01/27 09:16:52;;;;;;;;;;;;;;;;;;6142098;28;20051;-85
2024/01/27 09:19:53;;;;;;;10.60;5.28;;;;;;;;;;6135655;28;20423;-85
2024/01/27 09:22:55;;;;;;;11.68;5.00;;;;;;;;;;6148118;28;20052;-87
2024/01/27 09:25:57;;;;;;;11.80;3.88;;;;;;;;;;6154222;28;20418;-86
2024/01/27 09:28:59;;;;;;;19.85;5.55;;;;;;;;;;6136180;28;20141;-86
2024/01/27 09:32:01;;;;;;;12.35;4.75;;;;;;;;;;6121836;28;20046;-85
2024/01/27 09:35:02;;;;;;;11.40;5.47;;;;;;;;;;6125507;28;20055;-87
2024/01/27 09:38:07;;;;;;;9.38;4.50;;;;;;;;;;6133443;28;20055;-87
2024/01/27 09:41:12;;;;;;;12.80;5.40;;;;;;;;;;6118948;28;20208;-88
2024/01/27 09:44:19;;;;;;;14.25;6.75;;;;;;;;;;6115931;28;20070;-87
2024/01/27 09:47:21;;;;;;;18.63;7.47;;;;;;;;;;6142960;28;20055;-87
2024/01/27 09:50:23;;;;;;;25.33;10.88;;;;;;;;;;6128161;28;20046;-87
2024/01/27 09:53:28;;;;;;;24.75;8.23;;;;;;;;;;6119481;28;20248;-88
2024/01/27 09:56:35;;;;;;;24.00;7.20;;;;;;;;;;6108428;28;20043;-87
2024/01/27 09:59:41;;;;;;;16.75;6.82;;;;;;;;;;6119887;28;20406;-88
2024/01/27 10:02:46;;;;;;;15.60;5.60;;;;;;;;;;6117424;28;20392;-85
2024/01/27 10:05:49;;;;;;;21.85;8.18;;;;;;;;;;6128162;28;20066;-87
2024/01/27 10:08:54;;;;;;;18.13;6.18;;;;;;;;;;6121400;28;20046;-86
2024/01/27 10:11:58;;;;;;;6.20;3.15;;;;;;;;;;6125397;28;20077;-86
2024/01/27 10:15:00;;;;;;;11.25;2.90;;;;;;;;;;6157848;28;20422;-87
2024/01/27 10:18:12;;;;;;;8.30;2.72;;;;;;;;;;6114787;28;20054;-84
2024/01/27 10:21:16;;;;;;;14.05;3.03;;;;;;;;;;6156286;28;20043;-83
2024/01/27 10:24:18;;;;;;;36.45;10.27;;;;;;;;;;6155267;28;20248;-84
2024/01/27 10:27:20;;;;;;;16.02;4.75;;;;;;;;;;6157199;28;20062;-83
2024/01/27 10:30:21;;;;;;;15.20;5.20;;;;;;;;;;6132817;28;20055;-83
2024/01/27 10:33:23;;;;;;;20.98;6.20;;;;;;;;;;6137199;28;20051;-82
2024/01/27 10:36:28;;;;;;;23.08;6.80;;;;;;;;;;6138533;28;21364;-83
2024/01/27 10:39:30;;;;;;;21.60;6.70;;;;;;;;;;6157573;28;20047;-84
2024/01/27 10:42:33;;;;;;;10.95;3.70;;;;;;;;;;6137486;28;20462;-84
2024/01/27 10:45:44;;;;;;;;;;;;;;;;;;6144312;28;20064;-84
2024/01/27 10:48:50;;;;;;;11.80;3.92;;;;;;;;;;6132539;28;20491;-84
2024/01/27 10:51:59;;;;;;;12.95;3.78;;;;;;;;;;6138813;28;20392;-82
2024/01/27 10:55:06;;;;;;;6.65;2.50;;;;;;;;;;6137335;28;20066;-82
2024/01/27 10:58:10;;;;;;;7.45;3.15;;;;;;;;;;6159680;28;20058;-82
2024/01/27 11:01:13;;;;;;;9.77;3.60;;;;;;;;;;6117080;28;20202;-82
2024/01/27 11:04:16;;;;;;;9.88;2.10;;;;;;;;;;6125977;28;20292;-82
2024/01/27 11:07:21;;;;;;;12.98;2.47;;;;;;;;;;6136081;28;20101;-83
2024/01/27 11:10:23;;;;;;;9.40;3.15;;;;;;;;;;6133247;28;20133;-85
2024/01/27 11:13:28;;;;;;;9.48;1.95;;;;;;;;;;6130763;28;20077;-84
2024/01/27 11:16:30;;;;;;;6.38;2.50;;;;;;;;;;6134327;28;20053;-84
2024/01/27 11:19:41;;;;;;;14.55;4.25;;;;;;;;;;6130397;28;20161;-86
2024/01/27 11:22:43;;;;;;;9.00;2.63;;;;;;;;;;6152370;28;20043;-86
2024/01/27 11:25:45;;;;;;;7.47;2.20;;;;;;;;;;6152110;28;20502;-85
2024/01/27 11:28:48;;;;;;;6.72;2.70;;;;;;;;;;6129153;28;20646;-86
2024/01/27 11:31:51;;;;;;;;;;;;;;;;;;6134575;28;20054;-85
2024/01/27 11:34:55;;;;;;;7.18;1.83;;;;;;;;;;6124063;28;20020;-85
2024/01/27 11:37:58;;;;;;;9.03;1.83;;;;;;;;;;6146169;28;20047;-85
2024/01/27 11:41:01;;;;;;;10.70;2.10;;;;;;;;;;6129606;28;20199;-83
2024/01/27 11:44:02;;;;;;;7.13;2.17;;;;;;;;;;6121009;28;20078;-83
2024/01/27 11:47:13;;;;;;;11.18;2.40;;;;;;;;;;6155141;28;20055;-84
2024/01/27 11:50:17;;;;;;;6.72;1.40;;;;;;;;;;6138138;28;20694;-86
2024/01/27 11:53:21;;;;;;;8.27;2.47;;;;;;;;;;6129586;28;20047;-87
2024/01/27 11:56:25;;;;;;;9.35;1.60;;;;;;;;;;6126032;28;20050;-87
2024/01/27 11:59:30;;;;;;;12.38;1.92;;;;;;;;;;6105414;28;20124;-88
2024/01/27 12:02:35;;;;;;;10.70;3.35;;;;;;;;;;6151339;28;20063;-89
2024/01/27 12:05:40;;;;;;;10.38;2.70;;;;;;;;;;6123364;28;20185;-85
2024/01/27 12:08:46;;;;;;;5.70;2.08;;;;;;;;;;6122934;28;20079;-88
2024/01/27 12:11:50;;;;;;;7.82;1.95;;;;;;;;;;6093105;28;20050;-89
2024/01/27 12:14:54;;;;;;;7.68;2.95;;;;;;;;;;6126820;28;20055;-88
2024/01/27 12:17:56;;;;;;;10.27;1.90;;;;;;;;;;6130443;28;20051;-85
2024/01/27 12:21:00;;;;;;;6.10;1.70;;;;;;;;;;6112024;28;20057;-89
2024/01/27 12:24:02;;;;;;;8.60;2.15;;;;;;;;;;6110643;28;20043;-87
2024/01/27 12:27:04;;;;;;;8.77;2.20;;;;;;;;;;6136258;28;20047;-88
2024/01/27 12:30:10;;;;;;;11.90;3.10;;;;;;;;;;6115750;28;20066;-88
2024/01/27 12:33:13;;;;;;;12.07;3.85;;;;;;;;;;6114134;28;20047;-87
2024/01/27 12:36:19;;;;;;;10.93;2.50;;;;;;;;;;6099156;28;20070;-88
2024/01/27 12:39:21;;;;;;;9.25;2.42;;;;;;;;;;6146749;28;20054;-86
2024/01/27 12:42:23;;;;;;;6.38;2.53;;;;;;;;;;6153704;28;20453;-85
2024/01/27 12:45:25;;;;;;;8.50;2.25;;;;;;;;;;6122280;28;20503;-85
2024/01/27 12:48:31;;;;;;;8.77;3.00;;;;;;;;;;6120056;28;20092;-87
2024/01/27 12:51:34;;;;;;;8.15;1.67;;;;;;;;;;6138755;28;20510;-86
2024/01/27 12:54:36;;;;;;;4.10;1.40;;;;;;;;;;6122380;28;20078;-87
2024/01/27 12:57:39;;;;;;;9.68;1.95;;;;;;;;;;6123225;28;20449;-87
2024/01/27 13:00:41;;;;;;;10.02;1.40;;;;;;;;;;6136751;28;20038;-84
2024/01/27 13:03:43;;;;;;;5.38;1.58;;;;;;;;;;6112157;28;20520;-87
2024/01/27 13:06:47;;;;;;;7.57;1.25;;;;;;;;;;6133166;28;20264;-88
2024/01/27 13:09:49;;;;;;;7.50;1.70;;;;;;;;;;6151263;28;20047;-87
2024/01/27 13:12:50;;;;;;;8.50;1.70;;;;;;;;;;6125052;28;20050;-84
2024/01/27 13:15:52;;;;;;;6.25;1.33;;;;;;;;;;6120752;28;20174;-87
2024/01/27 13:18:55;;;;;;;5.15;1.08;;;;;;;;;;6149767;28;20047;-88
2024/01/27 13:21:57;;;;;;;12.85;1.30;;;;;;;;;;6137681;28;20055;-89
2024/01/27 13:25:01;;;;;;;7.28;1.35;;;;;;;;;;6141601;28;20139;-86
2024/01/27 13:28:11;;;;;;;6.78;1.23;;;;;;;;;;6132927;28;20130;-87
2024/01/27 13:31:15;;;;;;;5.85;1.27;;;;;;;;;;6137417;28;20430;-87
2024/01/27 13:34:18;;;;;;;9.82;2.33;;;;;;;;;;6122436;28;20058;-88
2024/01/27 13:37:20;;;;;;;7.40;1.65;;;;;;;;;;6133035;28;20050;-87
2024/01/27 13:40:23;;;;;;;9.00;2.38;;;;;;;;;;6137408;28;20054;-87
2024/01/27 13:43:28;;;;;;;5.07;1.10;;;;;;;;;;6125919;28;20086;-87
2024/01/27 13:46:32;;;;;;;6.68;1.70;;;;;;;;;;6139508;28;20214;-86
2024/01/27 13:49:36;;;;;;;8.40;1.52;;;;;;;;;;6125775;28;20047;-87
2024/01/27 13:52:38;;;;;;;;;;;;;;;;;;6149184;28;20502;-87
2024/01/27 13:55:42;;;;;;;4.40;1.20;;;;;;;;;;6130572;28;20004;-87
2024/01/27 13:58:44;;;;;;;5.15;1.30;;;;;;;;;;6148731;28;20039;-87
2024/01/27 14:01:47;;;;;;;4.40;1.42;;;;;;;;;;6117913;28;20646;-87
2024/01/27 14:04:49;;;;;;;6.03;1.50;;;;;;;;;;6130224;28;20078;-87
2024/01/27 14:07:51;;;;;;;4.80;1.30;;;;;;;;;;6103670;28;20600;-87
2024/01/27 14:10:53;;;;;;;7.47;1.80;;;;;;;;;;6128058;28;20130;-87
2024/01/27 14:13:55;;;;;;;5.85;1.60;;;;;;;;;;6137990;28;20042;-87
2024/01/27 14:16:58;;;;;;;9.20;2.22;;;;;;;;;;6171065;28;20055;-86
2024/01/27 14:19:59;;;;;;;8.57;3.10;;;;;;;;;;6152956;28;20089;-86
2024/01/27 14:23:02;;;;;;;9.02;3.40;;;;;;;;;;6128908;28;20447;-86
2024/01/27 14:26:07;;;;;;;12.18;4.68;;;;;;;;;;6130633;28;20054;-86
2024/01/27 14:29:10;;;;;;;9.05;2.75;;;;;;;;;;6137732;28;20593;-86
2024/01/27 14:32:12;;;;;;;4.80;1.60;;;;;;;;;;6127957;28;20046;-86
2024/01/27 14:35:14;;;;;;;6.45;1.67;;;;;;;;;;6111580;28;20146;-86
2024/01/27 14:38:17;;;;;;;6.10;1.45;;;;;;;;;;6152307;28;20091;-86
2024/01/27 14:41:20;;;;;;;5.47;1.63;;;;;;;;;;6129420;28;20051;-85
2024/01/27 14:44:22;;;;;;;9.02;1.88;;;;;;;;;;6136566;28;20202;-86
2024/01/27 14:47:25;;;;;;;6.28;1.70;;;;;;;;;;6124111;28;20518;-85
2024/01/27 14:50:27;;;;;;;9.68;2.22;;;;;;;;;;6124164;28;20071;-86
2024/01/27 14:53:29;;;;;;;8.90;2.25;;;;;;;;;;6132140;28;20055;-87
2024/01/27 14:56:32;;;;;;;3.67;1.50;;;;;;;;;;6113407;28;20102;-87
2024/01/27 14:59:34;;;;;;;7.28;2.25;;;;;;;;;;6139698;28;20039;-87
2024/01/27 15:02:36;;;;;;;12.05;1.83;;;;;;;;;;6148532;28;20043;-87
2024/01/27 15:05:40;;;;;;;8.57;1.60;;;;;;;;;;6136112;28;20434;-87
2024/01/27 15:08:45;;;;;;;5.72;1.33;;;;;;;;;;6127883;28;20047;-87
2024/01/27 15:11:48;;;;;;;7.40;1.90;;;;;;;;;;6147934;28;20051;-87
2024/01/27 15:14:50;;;;;;;;;;;;;;;;;;6123307;28;20066;-86
2024/01/27 15:18:00;;;;;;;18.58;6.85;;;;;;;;;;6125687;28;19930;-86
2024/01/27 15:21:04;;;;;;;16.85;6.15;;;;;;;;;;6120854;28;20522;-88
2024/01/27 15:24:06;;;;;;;16.42;5.03;;;;;;;;;;6147769;28;20053;-84
2024/01/27 15:27:08;;;;;;;9.13;2.95;;;;;;;;;;6131464;28;20043;-87
2024/01/27 15:30:13;;;;;;;17.20;7.78;;;;;;;;;;6130513;28;20058;-87
2024/01/27 15:33:18;;;;;;;20.67;7.65;;;;;;;;;;6118001;28;20166;-87
2024/01/27 15:36:23;;;;;;;12.10;4.97;;;;;;;;;;6135599;28;20058;-87
2024/01/27 15:39:25;;;;;;;15.10;6.72;;;;;;;;;;6146482;28;20480;-87
2024/01/27 15:42:30;;;;;;;11.43;5.07;;;;;;;;;;6121433;28;20055;-86
2024/01/27 15:45:34;;;;;;;15.88;7.60;;;;;;;;;;6133955;28;20054;-85
2024/01/27 15:48:37;;;;;;;12.00;4.47;;;;;;;;;;6107027;28;20047;-88
2024/01/27 15:51:40;;;;;;;14.53;5.77;;;;;;;;;;6144097;28;20051;-86
2024/01/27 15:54:43;;;;;;;20.20;8.17;;;;;;;;;;6157676;28;20047;-86
2024/01/27 15:57:47;;;;;;;25.00;9.18;;;;;;;;;;6151262;28;20449;-87
2024/01/27 16:00:49;;;;;;;15.88;7.03;;;;;;;;;;6135575;28;20082;-87
2024/01/27 16:03:54;;;;;;;6.80;2.83;;;;;;;;;;6125075;28;20486;-86
2024/01/27 16:06:56;;;;;;;9.85;3.88;;;;;;;;;;6100348;28;20077;-87
2024/01/27 16:10:01;;;;;;;6.65;4.00;;;;;;;;;;6129302;28;20053;-86
2024/01/27 16:13:03;;;;;;;4.82;2.42;;;;;;;;;;6133536;28;20122;-86
2024/01/27 16:16:06;;;;;;;6.28;3.58;;;;;;;;;;6125842;28;20359;-86
2024/01/27 16:19:13;;;;;;;8.98;3.22;;;;;;;;;;6133919;28;20571;-87
2024/01/27 16:22:16;;;;;;;8.02;3.45;;;;;;;;;;6120705;28;20356;-87
2024/01/27 16:25:19;;;;;;;11.60;4.15;;;;;;;;;;6136032;28;20089;-85
2024/01/27 16:28:21;;;;;;;11.10;5.18;;;;;;;;;;6114317;28;20125;-88
2024/01/27 16:31:23;;;;;;;11.52;5.63;;;;;;;;;;6116583;28;20054;-87
2024/01/27 16:34:25;;;;;;;12.60;6.68;;;;;;;;;;6101134;28;20059;-86
2024/01/27 16:37:30;;;;;;;14.18;8.60;;;;;;;;;;6124664;28;20050;-88
2024/01/27 16:40:32;;;;;;;16.13;8.43;;;;;;;;;;6122148;28;20188;-85
2024/01/27 16:43:33;;;;;;;16.33;7.13;;;;;;;;;;6128864;28;20136;-87
2024/01/27 16:46:35;;;;;;;11.57;5.05;;;;;;;;;;6149896;28;20059;-87
2024/01/27 16:49:39;;;;;;;;;;;;;;;;;;6132939;28;20402;-87
2024/01/27 16:52:44;;;;;;;8.20;4.03;;;;;;;;;;6131995;28;19930;-87
2024/01/27 16:55:47;;;;;;;12.18;4.18;;;;;;;;;;6128821;28;20455;-87
2024/01/27 16:58:51;;;;;;;15.02;6.85;;;;;;;;;;6128336;28;20097;-88
2024/01/27 17:01:53;;;;;;;29.30;11.93;;;;;;;;;;6115478;28;20449;-86
2024/01/27 17:05:01;;;;;;;23.23;12.63;;;;;;;;;;6116218;28;20047;-87
2024/01/27 17:08:03;;;;;;;20.80;11.48;;;;;;;;;;6141810;28;20054;-85
2024/01/27 17:11:05;;;;;;;16.90;7.60;;;;;;;;;;6124935;28;20058;-88
2024/01/27 17:14:08;;;;;;;13.93;7.10;;;;;;;;;;6105197;28;20420;-87
2024/01/27 17:17:11;;;;;;;16.35;6.93;;;;;;;;;;6122722;28;20438;-87
2024/01/27 17:20:18;;;;;;;16.50;6.32;;;;;;;;;;6115411;28;20130;-86
2024/01/27 17:23:21;;;;;;;19.40;8.90;;;;;;;;;;6126076;28;20418;-85
2024/01/27 17:26:24;;;;;;;18.08;9.43;;;;;;;;;;6136147;28;20075;-87
2024/01/27 17:29:26;;;;;;;19.27;8.85;;;;;;;;;;6110809;28;20498;-86
2024/01/27 17:32:28;;;;;;;15.73;7.68;;;;;;;;;;6143848;28;20134;-86
2024/01/27 17:35:32;;;;;;;16.35;7.57;;;;;;;;;;6135380;28;20058;-85
2024/01/27 17:38:35;;;;;;;18.70;7.82;;;;;;;;;;6141118;28;20058;-86
2024/01/27 17:41:40;;;;;;;28.27;8.60;;;;;;;;;;6108645;28;20554;-85
2024/01/27 17:44:41;;;;;;;19.25;9.10;;;;;;;;;;6125963;28;20183;-85
2024/01/27 17:47:44;;;;;;;22.27;11.20;;;;;;;;;;6134170;28;20039;-86
2024/01/27 17:50:46;;;;;;;25.95;11.75;;;;;;;;;;6130070;28;20101;-85
2024/01/27 17:53:48;;;;;;;19.15;9.65;;;;;;;;;;6131478;28;20098;-85
2024/01/27 17:56:53;;;;;;;19.15;9.82;;;;;;;;;;6128295;28;20058;-86
2024/01/27 17:59:56;;;;;;;25.58;12.40;;;;;;;;;;6106426;28;20106;-85
2024/01/27 18:02:58;;;;;;;22.17;9.93;;;;;;;;;;6131580;28;20047;-84
2024/01/27 18:06:01;;;;;;;22.85;10.02;;;;;;;;;;6106502;28;20043;-82
2024/01/27 18:09:04;;;;;;;;;;;;;;;;;;6130805;28;20039;-86